createdAt,value
2023-07-21T00:00:11.857Z,22.33
2023-07-21T00:01:10.019Z,21.70
2023-07-21T00:02:07.735Z,21.99
2023-07-21T00:03:04.776Z,22.31
2023-07-21T00:04:01.699Z,22.30
2023-07-21T00:04:58.631Z,21.74
2023-07-21T00:05:55.663Z,22.44
2023-07-21T00:06:53.056Z,22.40
2023-07-21T00:07:51.017Z,22.01
2023-07-21T00:08:48.019Z,22.33
2023-07-21T00:09:46.032Z,20.83
2023-07-21T00:10:44.810Z,22.61
2023-07-21T00:11:41.765Z,22.71
2023-07-21T00:12:48.387Z,21.99
2023-07-21T00:13:46.264Z,22.51
2023-07-21T00:14:43.119Z,22.69
2023-07-21T00:15:40.010Z,22.98
2023-07-21T00:16:37.029Z,22.09
2023-07-21T00:17:36.038Z,22.30
2023-07-21T00:18:34.657Z,22.55
2023-07-21T00:19:32.195Z,22.90
2023-07-21T00:20:31.094Z,22.75
2023-07-21T00:21:28.285Z,21.97
2023-07-21T00:22:25.362Z,20.50
2023-07-21T00:23:24.198Z,22.64
2023-07-21T00:24:21.888Z,22.38
2023-07-21T00:25:18.967Z,22.78
2023-07-21T00:26:17.149Z,22.58
2023-07-21T00:27:14.072Z,22.79
2023-07-21T00:28:10.982Z,22.39
2023-07-21T00:29:07.827Z,23.01
2023-07-21T00:30:08.998Z,22.08
2023-07-21T00:31:06.416Z,22.48
2023-07-21T00:32:03.527Z,22.26
2023-07-21T00:33:01.873Z,22.21
2023-07-21T00:33:59.084Z,22.14
2023-07-21T00:34:55.915Z,22.57
2023-07-21T00:35:53.336Z,20.97
2023-07-21T00:36:50.170Z,21.95
2023-07-21T00:37:47.814Z,21.61
2023-07-21T00:38:47.786Z,21.84
2023-07-21T00:39:46.115Z,22.48
2023-07-21T00:40:43.004Z,22.41
2023-07-21T00:41:39.874Z,21.99
2023-07-21T00:42:37.936Z,22.07
2023-07-21T00:43:35.457Z,22.12
2023-07-21T00:44:32.350Z,22.67
2023-07-21T00:45:34.602Z,22.54
2023-07-21T00:46:31.667Z,22.42
2023-07-21T00:47:30.778Z,21.50
2023-07-21T00:48:27.876Z,22.71
2023-07-21T00:49:24.730Z,22.18
2023-07-21T00:50:22.469Z,22.52
2023-07-21T00:51:20.727Z,22.40
2023-07-21T00:52:19.374Z,22.21
2023-07-21T00:53:16.283Z,20.76
2023-07-21T00:54:13.166Z,20.85
2023-07-21T00:55:11.282Z,22.31
2023-07-21T00:56:08.133Z,21.94
2023-07-21T00:57:05.419Z,22.36
2023-07-21T00:58:02.377Z,22.40
2023-07-21T00:59:01.358Z,21.07
2023-07-21T00:59:58.201Z,21.73
2023-07-21T01:00:55.264Z,22.05
2023-07-21T01:01:52.157Z,22.10
2023-07-21T01:02:51.056Z,21.79
2023-07-21T01:03:48.224Z,22.47
2023-07-21T01:04:46.771Z,22.75
2023-07-21T01:05:48.521Z,21.09
2023-07-21T01:06:47.458Z,22.71
2023-07-21T01:07:45.507Z,22.05
2023-07-21T01:08:43.821Z,22.24
2023-07-21T01:09:42.431Z,22.47
2023-07-21T01:10:41.922Z,22.32
2023-07-21T01:11:39.683Z,22.12
2023-07-21T01:12:36.826Z,22.78
2023-07-21T01:13:34.138Z,22.87
2023-07-21T01:14:31.374Z,22.54
2023-07-21T01:15:29.800Z,22.63
2023-07-21T01:16:28.513Z,21.26
2023-07-21T01:17:30.634Z,21.95
2023-07-21T01:18:28.465Z,21.85
2023-07-21T01:19:27.826Z,22.52
2023-07-21T01:20:28.724Z,22.34
2023-07-21T01:21:38.485Z,22.37
2023-07-21T01:22:49.276Z,22.28
2023-07-21T01:23:57.988Z,21.68
2023-07-21T01:24:54.799Z,22.26
2023-07-21T01:25:53.875Z,22.20
2023-07-21T01:26:51.736Z,21.30
2023-07-21T01:27:51.836Z,22.00
2023-07-21T01:28:50.318Z,21.97
2023-07-21T01:29:48.797Z,21.69
2023-07-21T01:30:49.674Z,20.86
2023-07-21T01:31:49.451Z,21.49
2023-07-21T01:32:48.764Z,21.64
2023-07-21T01:33:47.685Z,22.39
2023-07-21T01:34:45.472Z,21.64
2023-07-21T01:35:43.407Z,21.34
2023-07-21T01:36:42.454Z,21.74
2023-07-21T01:37:42.076Z,22.39
2023-07-21T01:38:40.560Z,22.12
2023-07-21T01:39:39.737Z,20.00
2023-07-21T01:40:37.473Z,22.33
2023-07-21T01:41:36.229Z,22.13
2023-07-21T01:42:33.101Z,21.84
2023-07-21T01:43:30.051Z,22.32
2023-07-21T01:44:27.228Z,20.81
2023-07-21T01:45:24.482Z,21.82
2023-07-21T01:46:21.604Z,20.30
2023-07-21T01:47:18.517Z,22.23
2023-07-21T01:48:15.911Z,22.23
2023-07-21T01:49:12.809Z,21.58
2023-07-21T01:50:14.693Z,21.23
2023-07-21T01:51:11.965Z,22.09
2023-07-21T01:52:09.496Z,22.16
2023-07-21T01:53:23.768Z,22.11
2023-07-21T01:54:45.228Z,21.96
2023-07-21T01:55:58.791Z,21.59
2023-07-21T01:57:06.507Z,22.35
2023-07-21T01:58:08.988Z,22.30
2023-07-21T01:59:11.931Z,22.19
2023-07-21T02:00:12.014Z,22.58
2023-07-21T02:01:12.007Z,22.17
2023-07-21T02:02:10.857Z,22.73
2023-07-21T02:03:08.987Z,21.84
2023-07-21T02:04:06.432Z,21.99
2023-07-21T02:05:07.007Z,22.65
2023-07-21T02:06:14.923Z,22.33
2023-07-21T02:07:12.666Z,22.60
2023-07-21T02:08:11.606Z,21.49
2023-07-21T02:09:08.453Z,22.12
2023-07-21T02:10:05.939Z,21.84
2023-07-21T02:11:02.859Z,22.03
2023-07-21T02:12:00.032Z,21.87
2023-07-21T02:12:57.000Z,22.56
2023-07-21T02:13:53.847Z,22.48
2023-07-21T02:14:50.719Z,21.75
2023-07-21T02:15:48.355Z,22.13
2023-07-21T02:16:45.358Z,22.63
2023-07-21T02:17:42.579Z,22.54
2023-07-21T02:18:42.639Z,22.21
2023-07-21T02:19:39.567Z,21.29
2023-07-21T02:20:36.424Z,21.90
2023-07-21T02:21:34.251Z,21.61
2023-07-21T02:22:31.150Z,22.17
2023-07-21T02:23:28.025Z,22.05
2023-07-21T02:24:24.959Z,22.15
2023-07-21T02:25:22.240Z,21.42
2023-07-21T02:26:19.191Z,21.85
2023-07-21T02:27:16.082Z,21.47
2023-07-21T02:28:13.071Z,21.90
2023-07-21T02:29:11.774Z,22.27
2023-07-21T02:30:09.361Z,21.54
2023-07-21T02:31:07.947Z,21.90
2023-07-21T02:32:05.133Z,21.50
2023-07-21T02:33:02.317Z,22.08
2023-07-21T02:33:59.324Z,21.52
2023-07-21T02:34:59.271Z,22.15
2023-07-21T02:35:56.833Z,21.89
2023-07-21T02:36:54.555Z,21.61
2023-07-21T02:37:51.498Z,21.47
2023-07-21T02:38:48.312Z,21.25
2023-07-21T02:39:45.223Z,21.69
2023-07-21T02:40:42.113Z,21.43
2023-07-21T02:41:38.964Z,22.20
2023-07-21T02:42:36.804Z,21.94
2023-07-21T02:43:34.812Z,22.04
2023-07-21T02:44:32.212Z,21.72
2023-07-21T02:45:29.120Z,20.68
2023-07-21T02:46:26.304Z,21.92
2023-07-21T02:47:23.376Z,21.36
2023-07-21T02:48:21.445Z,21.28
2023-07-21T02:49:18.341Z,21.90
2023-07-21T02:50:16.689Z,21.46
2023-07-21T02:51:13.761Z,21.64
2023-07-21T02:52:10.670Z,21.82
2023-07-21T02:53:07.864Z,21.74
2023-07-21T02:54:04.750Z,20.57
2023-07-21T02:55:01.569Z,21.05
2023-07-21T02:56:01.603Z,21.84
2023-07-21T02:56:59.178Z,20.94
2023-07-21T02:57:56.109Z,21.56
2023-07-21T02:58:54.455Z,21.07
2023-07-21T02:59:51.840Z,21.56
2023-07-21T03:00:48.842Z,21.62
2023-07-21T03:01:56.238Z,21.35
2023-07-21T03:02:53.430Z,20.94
2023-07-21T03:03:50.839Z,21.70
2023-07-21T03:04:48.052Z,21.63
2023-07-21T03:05:45.408Z,21.20
2023-07-21T03:06:42.913Z,21.92
2023-07-21T03:07:40.545Z,20.79
2023-07-21T03:08:38.117Z,21.74
2023-07-21T03:09:35.258Z,21.91
2023-07-21T03:10:32.202Z,21.86
2023-07-21T03:11:29.634Z,21.79
2023-07-21T03:12:26.519Z,21.73
2023-07-21T03:13:25.770Z,21.15
2023-07-21T03:14:22.679Z,20.53
2023-07-21T03:15:19.580Z,19.39
2023-07-21T03:16:17.025Z,21.80
2023-07-21T03:17:14.016Z,20.95
2023-07-21T03:18:11.096Z,20.12
2023-07-21T03:19:08.306Z,21.64
2023-07-21T03:20:12.806Z,21.00
2023-07-21T03:21:09.648Z,21.74
2023-07-21T03:22:06.569Z,21.83
2023-07-21T03:23:03.600Z,21.78
2023-07-21T03:24:00.815Z,21.71
2023-07-21T03:24:58.175Z,21.59
2023-07-21T03:25:55.966Z,21.79
2023-07-21T03:26:52.913Z,21.12
2023-07-21T03:27:49.869Z,21.75
2023-07-21T03:28:46.738Z,22.07
2023-07-21T03:29:46.649Z,22.02
2023-07-21T03:30:44.660Z,21.01
2023-07-21T03:31:42.365Z,21.24
2023-07-21T03:32:39.867Z,21.47
2023-07-21T03:33:36.880Z,21.14
2023-07-21T03:34:33.757Z,20.97
2023-07-21T03:35:30.677Z,21.36
2023-07-21T03:36:27.885Z,21.17
2023-07-21T03:37:26.731Z,21.80
2023-07-21T03:38:23.614Z,21.92
2023-07-21T03:39:24.472Z,20.97
2023-07-21T03:40:21.358Z,21.82
2023-07-21T03:41:18.614Z,21.90
2023-07-21T03:42:15.574Z,22.00
2023-07-21T03:43:12.553Z,21.83
2023-07-21T03:44:11.107Z,20.85
2023-07-21T03:45:08.245Z,21.36
2023-07-21T03:46:07.930Z,20.97
2023-07-21T03:47:05.182Z,20.57
2023-07-21T03:48:02.264Z,21.82
2023-07-21T03:48:59.384Z,21.08
2023-07-21T03:49:56.234Z,21.86
2023-07-21T03:51:00.291Z,21.53
2023-07-21T03:51:57.151Z,20.81
2023-07-21T03:52:54.248Z,21.72
2023-07-21T03:53:51.166Z,21.18
2023-07-21T03:54:48.144Z,21.49
2023-07-21T03:55:45.398Z,20.98
2023-07-21T03:56:42.313Z,21.69
2023-07-21T03:57:40.997Z,20.68
2023-07-21T03:58:37.857Z,20.47
2023-07-21T03:59:34.836Z,21.81
2023-07-21T04:00:32.140Z,21.49
2023-07-21T04:01:29.472Z,20.71
2023-07-21T04:02:27.074Z,22.25
2023-07-21T04:03:26.129Z,22.11
2023-07-21T04:04:23.521Z,22.29
2023-07-21T04:05:20.455Z,21.77
2023-07-21T04:06:19.297Z,22.04
2023-07-21T04:07:16.186Z,22.30
2023-07-21T04:08:14.350Z,22.14
2023-07-21T04:09:14.442Z,22.38
2023-07-21T04:10:11.431Z,21.37
2023-07-21T04:11:08.324Z,21.29
2023-07-21T04:12:08.902Z,21.21
2023-07-21T04:13:06.940Z,20.75
2023-07-21T04:14:03.813Z,21.82
2023-07-21T04:15:00.667Z,21.55
2023-07-21T04:15:57.613Z,21.61
2023-07-21T04:16:55.312Z,21.55
2023-07-21T04:17:53.451Z,21.64
2023-07-21T04:18:50.422Z,22.04
2023-07-21T04:19:47.443Z,21.76
2023-07-21T04:20:44.484Z,22.31
2023-07-21T04:21:41.357Z,22.52
2023-07-21T04:22:38.216Z,22.24
2023-07-21T04:23:36.056Z,21.45
2023-07-21T04:24:35.331Z,22.50
2023-07-21T04:25:33.479Z,22.07
2023-07-21T04:26:30.377Z,21.94
2023-07-21T04:27:30.223Z,22.72
2023-07-21T04:28:27.064Z,22.54
2023-07-21T04:29:35.549Z,22.15
2023-07-21T04:30:33.653Z,22.44
2023-07-21T04:31:30.521Z,21.69
2023-07-21T04:32:27.432Z,21.52
2023-07-21T04:33:24.983Z,22.21
2023-07-21T04:34:21.865Z,21.04
2023-07-21T04:35:18.827Z,22.79
2023-07-21T04:36:15.754Z,22.00
2023-07-21T04:37:14.750Z,22.50
2023-07-21T04:38:11.660Z,21.98
2023-07-21T04:39:09.139Z,21.59
2023-07-21T04:40:07.794Z,20.81
2023-07-21T04:41:04.699Z,21.81
2023-07-21T04:42:01.582Z,21.99
2023-07-21T04:42:58.482Z,21.85
2023-07-21T04:43:58.802Z,22.20
2023-07-21T04:44:56.749Z,20.44
2023-07-21T04:45:55.921Z,22.05
2023-07-21T04:46:52.824Z,21.29
2023-07-21T04:47:50.714Z,22.20
2023-07-21T04:48:47.750Z,20.73
2023-07-21T04:49:44.609Z,22.51
2023-07-21T04:50:44.672Z,21.94
2023-07-21T04:51:41.599Z,22.14
2023-07-21T04:52:39.052Z,22.68
2023-07-21T04:53:54.548Z,22.33
2023-07-21T04:54:51.398Z,21.14
2023-07-21T04:55:48.391Z,22.19
2023-07-21T04:56:45.914Z,22.48
2023-07-21T04:57:44.196Z,22.74
2023-07-21T04:58:41.078Z,22.44
2023-07-21T04:59:38.346Z,22.05
2023-07-21T05:00:35.867Z,22.18
2023-07-21T05:01:32.748Z,22.67
2023-07-21T05:02:30.360Z,22.50
2023-07-21T05:03:27.820Z,22.86
2023-07-21T05:04:24.690Z,23.03
2023-07-21T05:05:22.124Z,23.13
2023-07-21T05:06:18.982Z,22.52
2023-07-21T05:07:15.905Z,21.32
2023-07-21T05:08:12.852Z,22.33
2023-07-21T05:09:11.200Z,23.36
2023-07-21T05:10:08.294Z,23.19
2023-07-21T05:11:05.195Z,23.57
2023-07-21T05:12:02.661Z,23.16
2023-07-21T05:13:01.356Z,23.77
2023-07-21T05:13:59.358Z,23.21
2023-07-21T05:14:58.298Z,23.63
2023-07-21T05:15:55.710Z,23.33
2023-07-21T05:16:52.542Z,23.84
2023-07-21T05:17:49.567Z,24.12
2023-07-21T05:18:46.508Z,23.79
2023-07-21T05:19:43.517Z,23.80
2023-07-21T05:20:42.182Z,24.03
2023-07-21T05:21:39.109Z,24.36
2023-07-21T05:22:37.040Z,23.71
2023-07-21T05:23:34.030Z,23.90
2023-07-21T05:24:30.977Z,22.39
2023-07-21T05:25:27.862Z,23.42
2023-07-21T05:26:25.277Z,23.58
2023-07-21T05:27:23.353Z,23.12
2023-07-21T05:28:20.273Z,23.11
2023-07-21T05:29:17.134Z,22.99
2023-07-21T05:30:14.677Z,24.00
2023-07-21T05:31:14.714Z,23.51
2023-07-21T05:32:11.593Z,23.91
2023-07-21T05:33:08.525Z,23.63
2023-07-21T05:34:08.704Z,24.61
2023-07-21T05:35:10.774Z,24.28
2023-07-21T05:36:10.771Z,24.20
2023-07-21T05:37:07.819Z,24.77
2023-07-21T05:38:04.675Z,24.06
2023-07-21T05:39:02.106Z,23.61
2023-07-21T05:39:58.976Z,24.21
2023-07-21T05:41:01.378Z,24.18
2023-07-21T05:41:59.628Z,24.17
2023-07-21T05:42:56.488Z,24.28
2023-07-21T05:43:53.347Z,24.33
2023-07-21T05:44:50.459Z,22.36
2023-07-21T05:45:47.402Z,22.84
2023-07-21T05:46:46.110Z,24.48
2023-07-21T05:47:43.116Z,24.01
2023-07-21T05:48:40.063Z,24.99
2023-07-21T05:49:36.997Z,25.09
2023-07-21T05:50:38.524Z,24.16
2023-07-21T05:51:35.489Z,23.92
2023-07-21T05:52:32.353Z,24.64
2023-07-21T05:53:30.028Z,24.14
2023-07-21T05:54:27.890Z,24.54
2023-07-21T05:55:24.811Z,24.56
2023-07-21T05:56:21.675Z,24.98
2023-07-21T05:57:19.033Z,24.89
2023-07-21T05:58:16.016Z,25.22
2023-07-21T05:59:13.057Z,24.71
2023-07-21T06:00:16.133Z,25.20
2023-07-21T06:01:13.083Z,25.22
2023-07-21T06:02:09.972Z,24.33
2023-07-21T06:03:07.736Z,25.32
2023-07-21T06:04:06.968Z,25.32
2023-07-21T06:05:04.145Z,25.53
2023-07-21T06:06:01.057Z,24.55
2023-07-21T06:06:57.927Z,24.73
2023-07-21T06:07:55.206Z,25.18
2023-07-21T06:08:52.799Z,24.67
2023-07-21T06:09:49.626Z,25.02
2023-07-21T06:10:46.425Z,25.69
2023-07-21T06:11:43.294Z,25.42
2023-07-21T06:12:40.666Z,24.81
2023-07-21T06:13:37.735Z,25.65
2023-07-21T06:14:35.142Z,25.15
2023-07-21T06:15:31.983Z,25.84
2023-07-21T06:16:29.061Z,25.77
2023-07-21T06:17:26.523Z,25.86
2023-07-21T06:18:24.156Z,24.85
2023-07-21T06:19:21.105Z,25.08
2023-07-21T06:20:18.060Z,25.35
2023-07-21T06:21:14.901Z,25.13
2023-07-21T06:22:11.753Z,25.45
2023-07-21T06:23:08.692Z,25.47
2023-07-21T06:24:06.043Z,25.72
2023-07-21T06:25:04.908Z,25.85
2023-07-21T06:26:01.770Z,25.25
2023-07-21T06:27:00.163Z,25.41
2023-07-21T06:27:58.562Z,25.96
2023-07-21T06:28:55.528Z,26.07
2023-07-21T06:29:52.392Z,25.12
2023-07-21T06:30:49.930Z,25.33
2023-07-21T06:31:46.890Z,25.88
2023-07-21T06:32:43.861Z,25.99
2023-07-21T06:33:40.730Z,25.63
2023-07-21T06:34:37.620Z,25.57
2023-07-21T06:35:35.805Z,25.86
2023-07-21T06:36:33.053Z,25.73
2023-07-21T06:37:29.998Z,25.35
2023-07-21T06:38:26.961Z,25.74
2023-07-21T06:39:23.992Z,26.39
2023-07-21T06:40:21.112Z,26.31
2023-07-21T06:41:18.043Z,26.36
2023-07-21T06:42:33.716Z,26.67
2023-07-21T06:43:30.818Z,24.65
2023-07-21T06:44:27.649Z,26.58
2023-07-21T06:45:24.472Z,25.99
2023-07-21T06:46:21.322Z,25.80
2023-07-21T06:47:18.275Z,25.06
2023-07-21T06:48:15.160Z,25.55
2023-07-21T06:49:12.023Z,26.08
2023-07-21T06:50:09.477Z,25.90
2023-07-21T06:51:06.351Z,24.96
2023-07-21T06:52:04.793Z,25.73
2023-07-21T06:53:02.603Z,25.82
2023-07-21T06:53:59.437Z,25.93
2023-07-21T06:54:56.812Z,26.33
2023-07-21T06:55:55.733Z,26.20
2023-07-21T06:56:52.665Z,25.71
2023-07-21T06:57:49.565Z,26.60
2023-07-21T06:58:46.601Z,26.67
2023-07-21T06:59:43.512Z,26.35
2023-07-21T07:00:40.408Z,26.61
2023-07-21T07:01:37.286Z,26.98
2023-07-21T07:02:34.854Z,27.23
2023-07-21T07:03:31.813Z,26.16
2023-07-21T07:04:28.924Z,25.50
2023-07-21T07:05:25.907Z,25.59
2023-07-21T07:06:23.709Z,26.07
2023-07-21T07:07:20.833Z,26.49
2023-07-21T07:08:17.668Z,25.67
2023-07-21T07:09:15.651Z,25.93
2023-07-21T07:10:12.490Z,25.68
2023-07-21T07:11:10.464Z,25.85
2023-07-21T07:12:08.546Z,26.25
2023-07-21T07:13:05.381Z,25.92
2023-07-21T07:14:02.218Z,26.61
2023-07-21T07:14:59.771Z,25.29
2023-07-21T07:15:56.818Z,26.91
2023-07-21T07:16:53.770Z,26.87
2023-07-21T07:17:50.897Z,26.24
2023-07-21T07:18:47.840Z,26.74
2023-07-21T07:19:44.774Z,26.76
2023-07-21T07:20:48.712Z,27.21
2023-07-21T07:21:45.511Z,26.87
2023-07-21T07:22:42.414Z,27.47
2023-07-21T07:23:39.265Z,27.53
2023-07-21T07:24:36.595Z,27.77
2023-07-21T07:25:33.661Z,27.56
2023-07-21T07:26:30.631Z,27.88
2023-07-21T07:27:27.578Z,27.45
2023-07-21T07:28:25.020Z,27.12
2023-07-21T07:29:22.180Z,26.02
2023-07-21T07:30:21.979Z,26.95
2023-07-21T07:31:19.079Z,27.31
2023-07-21T07:32:16.895Z,27.48
2023-07-21T07:33:15.734Z,26.78
2023-07-21T07:34:12.909Z,26.82
2023-07-21T07:35:11.421Z,27.29
2023-07-21T07:36:08.339Z,27.54
2023-07-21T07:37:05.385Z,27.61
2023-07-21T07:38:02.264Z,27.31
2023-07-21T07:38:59.089Z,27.20
2023-07-21T07:39:56.855Z,27.55
2023-07-21T07:40:55.039Z,27.52
2023-07-21T07:41:53.257Z,27.45
2023-07-21T07:42:50.299Z,28.30
2023-07-21T07:43:47.304Z,28.29
2023-07-21T07:44:44.122Z,28.14
2023-07-21T07:45:40.993Z,28.05
2023-07-21T07:46:37.878Z,28.16
2023-07-21T07:47:36.292Z,28.54
2023-07-21T07:48:34.997Z,27.98
2023-07-21T07:49:32.321Z,27.48
2023-07-21T07:50:29.178Z,27.48
2023-07-21T07:51:26.189Z,26.47
2023-07-21T07:52:23.833Z,27.81
2023-07-21T07:53:21.354Z,28.02
2023-07-21T07:54:18.271Z,27.31
2023-07-21T07:55:16.467Z,27.33
2023-07-21T07:56:16.615Z,27.66
2023-07-21T07:57:13.470Z,26.49
2023-07-21T07:58:10.625Z,28.14
2023-07-21T07:59:07.601Z,28.06
2023-07-21T08:00:09.416Z,27.49
2023-07-21T08:01:06.468Z,27.51
2023-07-21T08:02:03.527Z,27.89
2023-07-21T08:03:00.768Z,27.38
2023-07-21T08:03:57.792Z,27.78
2023-07-21T08:04:54.760Z,27.53
2023-07-21T08:05:52.225Z,27.69
2023-07-21T08:06:52.006Z,28.37
2023-07-21T08:07:50.548Z,27.50
2023-07-21T08:08:47.419Z,27.82
2023-07-21T08:09:44.252Z,28.61
2023-07-21T08:10:43.099Z,28.55
2023-07-21T08:11:40.294Z,28.18
2023-07-21T08:12:37.120Z,28.00
2023-07-21T08:13:34.293Z,28.34
2023-07-21T08:14:31.136Z,28.58
2023-07-21T08:15:28.545Z,29.07
2023-07-21T08:16:25.555Z,28.92
2023-07-21T08:17:22.582Z,29.12
2023-07-21T08:18:19.544Z,28.40
2023-07-21T08:19:16.487Z,28.86
2023-07-21T08:20:13.439Z,27.98
2023-07-21T08:21:29.168Z,28.92
2023-07-21T08:22:26.322Z,28.99
2023-07-21T08:23:29.361Z,29.39
2023-07-21T08:24:27.194Z,28.04
2023-07-21T08:25:24.247Z,29.01
2023-07-21T08:26:21.158Z,28.10
2023-07-21T08:27:18.054Z,28.58
2023-07-21T08:28:14.830Z,28.53
2023-07-21T08:29:11.665Z,28.57
2023-07-21T08:30:09.932Z,28.69
2023-07-21T08:31:06.852Z,28.81
2023-07-21T08:32:03.896Z,29.44
2023-07-21T08:33:00.959Z,29.35
2023-07-21T08:33:57.755Z,28.80
2023-07-21T08:34:56.614Z,29.26
2023-07-21T08:35:53.397Z,29.40
2023-07-21T08:36:55.151Z,29.66
2023-07-21T08:37:52.562Z,29.27
2023-07-21T08:38:51.391Z,29.80
2023-07-21T08:39:48.467Z,29.15
2023-07-21T08:40:51.654Z,29.88
2023-07-21T08:41:51.693Z,29.90
2023-07-21T08:42:52.107Z,29.72
2023-07-21T08:43:52.165Z,29.98
2023-07-21T08:44:49.717Z,30.71
2023-07-21T08:45:50.788Z,30.65
2023-07-21T08:46:48.411Z,30.14
2023-07-21T08:47:45.358Z,30.63
2023-07-21T08:48:43.080Z,30.44
2023-07-21T08:49:41.981Z,30.16
2023-07-21T08:50:41.829Z,30.53
2023-07-21T08:51:38.645Z,30.13
2023-07-21T08:52:35.465Z,30.17
2023-07-21T08:53:32.534Z,30.15
2023-07-21T08:54:29.346Z,30.71
2023-07-21T08:55:26.641Z,29.85
2023-07-21T08:56:23.768Z,29.50
2023-07-21T08:57:21.304Z,29.82
2023-07-21T08:58:19.074Z,29.89
2023-07-21T08:59:15.958Z,29.86
2023-07-21T09:00:16.416Z,29.22
2023-07-21T09:01:13.248Z,29.84
2023-07-21T09:02:10.110Z,28.62
2023-07-21T09:03:07.460Z,30.16
2023-07-21T09:04:20.651Z,30.26
2023-07-21T09:05:19.110Z,30.37
2023-07-21T09:06:16.271Z,30.17
2023-07-21T09:07:13.910Z,30.58
2023-07-21T09:08:29.625Z,30.19
2023-07-21T09:09:28.587Z,30.67
2023-07-21T09:10:34.017Z,30.30
2023-07-21T09:11:36.007Z,29.97
2023-07-21T09:12:37.432Z,30.99
2023-07-21T09:13:34.199Z,31.08
2023-07-21T09:14:45.049Z,30.84
2023-07-21T09:15:42.026Z,29.97
2023-07-21T09:16:44.109Z,30.43
2023-07-21T09:17:44.829Z,30.62
2023-07-21T09:18:44.707Z,30.64
2023-07-21T09:19:44.404Z,30.86
2023-07-21T09:20:41.768Z,30.37
2023-07-21T09:21:38.801Z,30.88
2023-07-21T09:22:35.643Z,30.36
2023-07-21T09:23:32.587Z,30.36
2023-07-21T09:24:29.462Z,30.57
2023-07-21T09:25:26.841Z,30.81
2023-07-21T09:26:25.373Z,30.84
2023-07-21T09:27:22.827Z,30.75
2023-07-21T09:28:20.121Z,30.63
2023-07-21T09:29:21.336Z,30.64
2023-07-21T09:30:18.167Z,30.92
2023-07-21T09:31:15.647Z,30.85
2023-07-21T09:32:17.955Z,30.75
2023-07-21T09:33:14.851Z,30.94
2023-07-21T09:34:11.761Z,30.62
2023-07-21T09:35:11.195Z,30.92
2023-07-21T09:36:11.993Z,31.13
2023-07-21T09:37:16.679Z,31.10
2023-07-21T09:38:13.680Z,30.82
2023-07-21T09:39:16.211Z,29.54
2023-07-21T09:40:13.192Z,30.46
2023-07-21T09:41:15.747Z,30.63
2023-07-21T09:42:13.910Z,30.87
2023-07-21T09:43:11.805Z,30.62
2023-07-21T09:44:09.294Z,30.70
2023-07-21T09:45:06.922Z,30.41
2023-07-21T09:46:17.162Z,30.71
2023-07-21T09:47:17.397Z,31.19
2023-07-21T09:48:14.877Z,30.19
2023-07-21T09:49:12.195Z,29.92
2023-07-21T09:50:09.371Z,30.87
2023-07-21T09:51:09.001Z,30.35
2023-07-21T09:52:06.914Z,30.59
2023-07-21T09:53:06.004Z,30.27
2023-07-21T09:54:06.084Z,30.63
2023-07-21T09:55:15.042Z,31.19
2023-07-21T09:56:14.963Z,31.06
2023-07-21T09:57:17.820Z,30.40
2023-07-21T09:58:19.142Z,31.06
2023-07-21T09:59:18.342Z,30.77
2023-07-21T10:00:18.211Z,30.59
2023-07-21T10:01:16.732Z,31.05
2023-07-21T10:02:13.971Z,30.38
2023-07-21T10:03:13.071Z,30.12
2023-07-21T10:04:10.838Z,31.22
2023-07-21T10:05:10.566Z,31.23
2023-07-21T10:06:08.103Z,31.23
2023-07-21T10:07:08.497Z,30.44
2023-07-21T10:08:08.117Z,30.74
2023-07-21T10:09:10.497Z,31.24
2023-07-21T10:10:09.494Z,31.49
2023-07-21T10:11:10.500Z,30.85
2023-07-21T10:12:12.327Z,31.22
2023-07-21T10:13:09.145Z,31.09
2023-07-21T10:14:06.311Z,31.70
2023-07-21T10:15:14.390Z,31.00
2023-07-21T10:16:11.352Z,31.72
2023-07-21T10:17:10.058Z,31.78
2023-07-21T10:18:14.985Z,31.83
2023-07-21T10:19:14.381Z,31.47
2023-07-21T10:20:13.241Z,31.01
2023-07-21T10:21:10.178Z,31.15
2023-07-21T10:22:11.487Z,31.59
2023-07-21T10:23:10.376Z,31.20
2023-07-21T10:24:07.451Z,31.21
2023-07-21T10:25:05.788Z,31.50
2023-07-21T10:26:04.480Z,31.98
2023-07-21T10:27:06.684Z,31.46
2023-07-21T10:28:05.145Z,31.21
2023-07-21T10:29:17.744Z,31.48
2023-07-21T10:30:23.640Z,31.23
2023-07-21T10:31:27.058Z,31.79
2023-07-21T10:32:25.950Z,31.53
2023-07-21T10:33:30.475Z,31.37
2023-07-21T10:34:41.079Z,31.81
2023-07-21T10:35:40.183Z,31.10
2023-07-21T10:36:43.959Z,32.32
2023-07-21T10:37:40.838Z,31.66
2023-07-21T10:38:42.052Z,31.85
2023-07-21T10:39:44.053Z,31.99
2023-07-21T10:40:45.697Z,32.35
2023-07-21T10:41:42.905Z,31.29
2023-07-21T10:42:41.387Z,32.34
2023-07-21T10:43:38.371Z,32.36
2023-07-21T10:44:41.361Z,32.30
2023-07-21T10:45:39.371Z,32.16
2023-07-21T10:46:45.550Z,31.73
2023-07-21T10:47:42.527Z,32.33
2023-07-21T10:48:39.461Z,32.55
2023-07-21T10:49:37.830Z,32.12
2023-07-21T10:50:34.615Z,32.44
2023-07-21T10:51:31.877Z,32.58
2023-07-21T10:52:28.672Z,32.67
2023-07-21T10:53:25.782Z,32.64
2023-07-21T10:54:22.790Z,32.71
2023-07-21T10:55:21.028Z,32.82
2023-07-21T10:56:17.958Z,32.25
2023-07-21T10:57:14.790Z,32.85
2023-07-21T10:58:11.643Z,32.74
2023-07-21T10:59:12.755Z,32.77
2023-07-21T11:00:11.058Z,32.23
2023-07-21T11:01:07.937Z,32.56
2023-07-21T11:02:08.625Z,33.09
2023-07-21T11:03:06.145Z,33.07
2023-07-21T11:04:03.068Z,32.75
2023-07-21T11:05:04.199Z,32.76
2023-07-21T11:06:02.161Z,32.88
2023-07-21T11:07:00.900Z,32.14
2023-07-21T11:07:57.862Z,32.64
2023-07-21T11:08:54.727Z,32.76
2023-07-21T11:09:54.735Z,32.42
2023-07-21T11:10:51.681Z,32.10
2023-07-21T11:11:53.869Z,32.64
2023-07-21T11:12:52.065Z,32.31
2023-07-21T11:13:49.189Z,32.19
2023-07-21T11:14:46.062Z,32.64
2023-07-21T11:15:42.870Z,32.39
2023-07-21T11:16:47.104Z,32.47
2023-07-21T11:17:45.600Z,32.51
2023-07-21T11:18:45.624Z,32.88
2023-07-21T11:19:42.569Z,32.97
2023-07-21T11:20:39.378Z,32.99
2023-07-21T11:21:36.425Z,32.93
2023-07-21T11:22:34.884Z,33.21
2023-07-21T11:23:33.027Z,33.21
2023-07-21T11:24:31.529Z,32.87
2023-07-21T11:25:28.614Z,33.53
2023-07-21T11:26:25.512Z,33.47
2023-07-21T11:27:22.482Z,33.69
2023-07-21T11:28:19.378Z,32.49
2023-07-21T11:29:17.608Z,33.60
2023-07-21T11:30:19.332Z,32.53
2023-07-21T11:31:17.408Z,32.15
2023-07-21T11:32:24.138Z,31.72
2023-07-21T11:33:23.094Z,32.92
2023-07-21T11:34:25.571Z,33.20
2023-07-21T11:35:33.462Z,32.69
2023-07-21T11:36:34.643Z,33.16
2023-07-21T11:37:39.961Z,32.41
2023-07-21T11:38:38.197Z,31.60
2023-07-21T11:39:35.220Z,33.33
2023-07-21T11:40:34.564Z,33.41
2023-07-21T11:41:43.265Z,33.45
2023-07-21T11:42:47.411Z,32.70
2023-07-21T11:43:48.957Z,33.44
2023-07-21T11:44:45.808Z,33.18
2023-07-21T11:45:43.021Z,33.82
2023-07-21T11:46:40.124Z,34.08
2023-07-21T11:47:37.006Z,33.86
2023-07-21T11:48:34.331Z,34.00
2023-07-21T11:49:33.493Z,34.08
2023-07-21T11:50:30.755Z,33.49
2023-07-21T11:51:28.512Z,33.50
2023-07-21T11:52:28.224Z,33.45
2023-07-21T11:53:26.700Z,33.37
2023-07-21T11:54:25.642Z,32.39
2023-07-21T11:55:22.452Z,33.68
2023-07-21T11:56:19.368Z,34.06
2023-07-21T11:57:16.257Z,33.54
2023-07-21T11:58:13.246Z,33.88
2023-07-21T11:59:10.077Z,33.38
2023-07-21T12:00:12.842Z,33.91
2023-07-21T12:01:09.745Z,34.07
2023-07-21T12:02:09.201Z,33.47
2023-07-21T12:03:07.884Z,33.95
2023-07-21T12:04:04.934Z,33.98
2023-07-21T12:05:01.979Z,33.73
2023-07-21T12:05:58.844Z,33.82
2023-07-21T12:06:55.646Z,32.52
2023-07-21T12:07:53.572Z,33.73
2023-07-21T12:08:50.355Z,33.80
2023-07-21T12:09:47.259Z,33.15
2023-07-21T12:10:44.208Z,34.05
2023-07-21T12:11:41.630Z,33.84
2023-07-21T12:12:38.666Z,34.42
2023-07-21T12:13:35.456Z,33.94
2023-07-21T12:14:32.313Z,34.52
2023-07-21T12:15:30.965Z,33.92
2023-07-21T12:16:27.944Z,34.60
2023-07-21T12:17:24.902Z,34.46
2023-07-21T12:18:21.919Z,34.04
2023-07-21T12:19:19.446Z,33.58
2023-07-21T12:21:15.591Z,34.19
2023-07-21T12:22:12.435Z,33.29
2023-07-21T12:23:09.492Z,34.87
2023-07-21T12:24:06.724Z,34.53
2023-07-21T12:25:04.440Z,34.00
2023-07-21T12:26:01.694Z,34.42
2023-07-21T12:26:58.541Z,34.37
2023-07-21T12:27:55.602Z,33.96
2023-07-21T12:28:52.886Z,33.73
2023-07-21T12:29:49.895Z,34.41
2023-07-21T12:30:47.007Z,34.20
2023-07-21T12:31:44.054Z,34.33
2023-07-21T12:32:40.975Z,34.32